Bray, Oklahoma
Current Conditions -  °F | °C
As of 10:15 AM on Thursday 27 Nov 2014 (Local Time) from KDUC Reporting Station
Clear Clear  
Wind Chill:   Ceiling: Unl
Heat Index:   Visibility: 10mi
Dew Point: -2°   Wind: 5mph
Humidity: 53%   Direction: 100°E
Pressure: 30.55"   Gusts: NA
Location:  34.61°N, 97.82°W
Report Text: KDUC 271615Z AUTO 10004KT 10SM CLR 07/M02 A3055 RMK AO2
Loading
Personal Weather Stations






























Interactive Weather Map New forecast layout! Learn more

10-Day Weather Forecast

Advertisements
Track Severe Weather on mobile